createdAt,value
2018-12-15T00:01:25.171Z,97997.46
2018-12-15T00:03:52.844Z,97997.91
2018-12-15T00:06:20.589Z,97999.92
2018-12-15T00:08:48.187Z,97995.00
2018-12-15T00:11:15.789Z,97989.87
2018-12-15T00:13:43.415Z,97992.21
2018-12-15T00:16:11.024Z,97991.31
2018-12-15T00:18:38.721Z,97993.92
2018-12-15T00:21:06.380Z,97994.30
2018-12-15T00:23:34.053Z,97992.30
2018-12-15T00:26:01.655Z,97996.80
2018-12-15T00:28:29.288Z,97999.31
2018-12-15T00:30:56.933Z,97996.92
2018-12-15T00:33:24.533Z,98002.17
2018-12-15T00:35:52.152Z,97998.13
2018-12-15T00:38:19.761Z,98000.52
2018-12-15T00:40:47.452Z,98005.30
2018-12-15T00:43:15.119Z,98006.58
2018-12-15T00:45:42.746Z,98009.05
2018-12-15T00:48:10.452Z,98008.55
2018-12-15T00:50:38.105Z,98014.88
2018-12-15T00:53:05.745Z,98012.23
2018-12-15T00:55:33.412Z,98016.63
2018-12-15T00:58:01.011Z,98021.70
2018-12-15T01:00:28.631Z,98024.39
2018-12-15T01:02:56.248Z,98022.11
2018-12-15T01:05:23.853Z,98021.70
2018-12-15T01:07:51.480Z,98024.08
2018-12-15T01:10:19.081Z,98026.59
2018-12-15T01:12:46.713Z,98029.37
2018-12-15T01:15:16.386Z,98029.55
2018-12-15T01:17:43.995Z,98027.40
2018-12-15T01:20:11.628Z,98031.44
2018-12-15T01:22:39.225Z,98029.45
2018-12-15T01:25:06.855Z,98024.16
2018-12-15T01:27:34.444Z,98019.39
2018-12-15T01:30:02.080Z,98023.00
2018-12-15T01:32:29.713Z,98025.17
2018-12-15T01:34:57.356Z,98024.68
2018-12-15T01:37:24.983Z,98023.46
2018-12-15T01:39:52.608Z,98028.09
2018-12-15T01:42:20.241Z,98023.88
2018-12-15T01:44:47.858Z,98027.19
2018-12-15T01:47:15.518Z,98030.77
2018-12-15T01:49:43.140Z,98030.81
2018-12-15T01:52:10.779Z,98035.35
2018-12-15T01:54:38.378Z,98036.98
2018-12-15T01:57:05.961Z,98036.47
2018-12-15T01:59:33.644Z,98034.50
2018-12-15T02:02:01.248Z,98040.82
2018-12-15T02:04:28.906Z,98040.09
2018-12-15T02:06:56.505Z,98042.83
2018-12-15T02:09:24.101Z,98042.83
2018-12-15T02:11:51.712Z,98049.20
2018-12-15T02:14:19.333Z,98054.33
2018-12-15T02:16:46.960Z,98057.53
2018-12-15T02:19:14.573Z,98051.84
2018-12-15T02:21:42.259Z,98058.52
2018-12-15T02:24:09.863Z,98060.03
2018-12-15T02:26:37.447Z,98060.11
2018-12-15T02:29:05.142Z,98067.27
2018-12-15T02:31:32.875Z,98061.80
2018-12-15T02:34:00.462Z,98057.80
2018-12-15T02:36:28.079Z,98059.27
2018-12-15T02:38:55.689Z,98053.27
2018-12-15T02:41:23.755Z,98059.84
2018-12-15T02:43:51.347Z,98057.37
2018-12-15T02:46:19.013Z,98061.72
2018-12-15T02:48:46.755Z,98066.08
2018-12-15T02:51:14.445Z,98069.19
2018-12-15T02:53:42.037Z,98069.19
2018-12-15T02:56:09.732Z,98070.11
2018-12-15T02:58:37.377Z,98070.73
2018-12-15T03:01:05.156Z,98070.80
2018-12-15T03:03:32.778Z,98073.34
2018-12-15T03:06:00.396Z,98077.08
2018-12-15T03:08:27.994Z,98074.03
2018-12-15T03:10:55.664Z,98070.07
2018-12-15T03:13:23.409Z,98074.34
2018-12-15T03:15:51.036Z,98071.84
2018-12-15T03:18:18.628Z,98078.42
2018-12-15T03:20:51.756Z,98079.61
2018-12-15T03:23:19.380Z,98080.23
2018-12-15T03:25:46.983Z,98083.77
2018-12-15T03:28:14.600Z,98081.69
2018-12-15T03:30:42.274Z,98084.88
2018-12-15T03:33:09.900Z,98076.30
2018-12-15T03:35:37.495Z,98080.27
2018-12-15T03:38:05.220Z,98078.00
2018-12-15T03:40:32.942Z,98085.11
2018-12-15T03:43:00.591Z,98088.11
2018-12-15T03:45:28.205Z,98089.23
2018-12-15T03:47:56.426Z,98080.62
2018-12-15T03:50:24.166Z,98086.95
2018-12-15T03:52:51.770Z,98088.46
2018-12-15T03:55:19.397Z,98081.61
2018-12-15T03:57:47.017Z,98083.62
2018-12-15T04:00:14.678Z,98085.95
2018-12-15T04:02:42.337Z,98083.73
2018-12-15T04:05:09.948Z,98086.08
2018-12-15T04:07:37.541Z,98088.19
2018-12-15T04:10:05.426Z,98089.08
2018-12-15T04:12:33.098Z,98089.92
2018-12-15T04:15:00.686Z,98084.61
2018-12-15T04:17:28.304Z,98086.08
2018-12-15T04:19:55.951Z,98087.87
2018-12-15T04:22:23.605Z,98097.39
2018-12-15T04:24:51.229Z,98097.03
2018-12-15T04:27:18.830Z,98094.91
2018-12-15T04:29:46.447Z,98096.27
2018-12-15T04:32:14.053Z,98099.27
2018-12-15T04:34:41.664Z,98099.04
2018-12-15T04:37:09.273Z,98103.58
2018-12-15T04:39:36.947Z,98104.49
2018-12-15T04:42:04.528Z,98104.92
2018-12-15T04:44:32.206Z,98103.45
2018-12-15T04:47:00.076Z,98107.13
2018-12-15T04:49:27.703Z,98105.11
2018-12-15T04:51:55.341Z,98106.38
2018-12-15T04:54:22.988Z,98103.27
2018-12-15T04:56:50.637Z,98107.66
2018-12-15T04:59:18.450Z,98118.61
2018-12-15T05:01:46.061Z,98115.80
2018-12-15T05:04:13.699Z,98112.69
2018-12-15T05:06:41.310Z,98112.69
2018-12-15T05:09:08.955Z,98115.80
2018-12-15T05:11:36.564Z,98116.48
2018-12-15T05:14:04.276Z,98123.28
2018-12-15T05:16:31.891Z,98118.87
2018-12-15T05:18:59.520Z,98125.47
2018-12-15T05:21:27.136Z,98126.93
2018-12-15T05:23:54.745Z,98132.20
2018-12-15T05:26:22.395Z,98129.08
2018-12-15T05:28:50.061Z,98133.62
2018-12-15T05:31:17.681Z,98134.70
2018-12-15T05:33:45.357Z,98136.41
2018-12-15T05:36:13.017Z,98138.56
2018-12-15T05:38:40.662Z,98137.22
2018-12-15T05:41:08.284Z,98139.31
2018-12-15T05:43:35.874Z,98139.54
2018-12-15T05:46:03.570Z,98138.50
2018-12-15T05:48:31.185Z,98139.91
2018-12-15T05:50:58.833Z,98148.53
2018-12-15T05:53:26.484Z,98148.83
2018-12-15T05:55:54.101Z,98150.17
2018-12-15T05:58:21.712Z,98153.61
2018-12-15T06:00:49.314Z,98157.81
2018-12-15T06:03:16.923Z,98157.01
2018-12-15T06:05:44.690Z,98157.64
2018-12-15T06:08:12.368Z,98156.53
2018-12-15T06:10:39.988Z,98162.66
2018-12-15T06:13:07.587Z,98165.95
2018-12-15T06:15:35.250Z,98156.41
2018-12-15T06:18:02.831Z,98165.52
2018-12-15T06:20:30.428Z,98160.40
2018-12-15T06:22:58.015Z,98170.66
2018-12-15T06:25:25.645Z,98164.84
2018-12-15T06:27:53.269Z,98163.87
2018-12-15T06:30:20.864Z,98160.27
2018-12-15T06:32:48.470Z,98166.13
2018-12-15T06:35:16.123Z,98168.88
2018-12-15T06:37:43.749Z,98164.11
2018-12-15T06:40:11.357Z,98168.38
2018-12-15T06:42:38.958Z,98163.47
2018-12-15T06:45:07.023Z,98163.73
2018-12-15T06:47:34.627Z,98168.51
2018-12-15T06:50:02.231Z,98168.14
2018-12-15T06:52:29.926Z,98165.75
2018-12-15T06:54:57.574Z,98164.47
2018-12-15T06:57:25.648Z,98172.58
2018-12-15T06:59:53.300Z,98168.67
2018-12-15T07:02:20.957Z,98171.91
2018-12-15T07:04:48.598Z,98176.02
2018-12-15T07:07:16.230Z,98172.71
2018-12-15T07:09:44.001Z,98173.02
2018-12-15T07:12:11.705Z,98171.73
2018-12-15T07:14:40.461Z,98177.66
2018-12-15T07:17:08.081Z,98181.89
2018-12-15T07:19:35.702Z,98181.59
2018-12-15T07:22:03.373Z,98180.94
2018-12-15T07:24:31.012Z,98177.30
2018-12-15T07:26:58.675Z,98176.67
2018-12-15T07:29:26.532Z,98186.63
2018-12-15T07:31:54.168Z,98188.51
2018-12-15T07:34:21.811Z,98184.14
2018-12-15T07:36:49.535Z,98184.17
2018-12-15T07:39:17.627Z,98183.27
2018-12-15T07:41:45.309Z,98195.07
2018-12-15T07:44:12.976Z,98190.73
2018-12-15T07:46:40.645Z,98198.37
2018-12-15T07:49:08.354Z,98197.02
2018-12-15T07:51:36.241Z,98199.77
2018-12-15T07:54:04.703Z,98201.63
2018-12-15T07:56:32.538Z,98200.75
2018-12-15T07:59:00.400Z,98197.59
2018-12-15T08:01:28.669Z,98196.18
2018-12-15T08:03:56.472Z,98197.89
2018-12-15T08:06:24.391Z,98193.65
2018-12-15T08:08:52.111Z,98193.89
2018-12-15T08:11:25.146Z,98201.86
2018-12-15T08:13:57.020Z,98197.14
2018-12-15T08:16:24.685Z,98201.78
2018-12-15T08:18:57.875Z,98201.72
2018-12-15T08:21:22.040Z,98199.09
2018-12-15T08:23:49.871Z,98197.14
2018-12-15T08:26:17.744Z,98199.03
2018-12-15T08:28:45.754Z,98202.53
2018-12-15T08:31:13.665Z,98199.19
2018-12-15T08:33:41.274Z,98207.91
2018-12-15T08:36:08.974Z,98204.11
2018-12-15T08:38:36.709Z,98204.91
2018-12-15T08:41:05.697Z,98207.30
2018-12-15T08:43:33.288Z,98214.57
2018-12-15T08:46:02.092Z,98215.77
2018-12-15T08:48:29.757Z,98212.78
2018-12-15T08:50:57.577Z,98212.39
2018-12-15T08:53:25.329Z,98212.57
2018-12-15T08:55:52.935Z,98215.77
2018-12-15T08:58:20.709Z,98210.69
2018-12-15T09:00:48.336Z,98213.08
2018-12-15T09:03:16.053Z,98218.97
2018-12-15T09:05:43.748Z,98210.92
2018-12-15T09:08:13.440Z,98217.63
2018-12-15T09:10:41.076Z,98219.66
2018-12-15T09:13:08.651Z,98222.34
2018-12-15T09:15:36.235Z,98218.22
2018-12-15T09:18:03.875Z,98217.72
2018-12-15T09:20:31.477Z,98196.74
2018-12-15T09:22:59.209Z,98214.81
2018-12-15T09:25:26.821Z,98209.20
2018-12-15T09:27:54.406Z,98211.50
2018-12-15T09:30:21.997Z,98203.45
2018-12-15T09:32:49.580Z,98202.53
2018-12-15T09:35:17.176Z,98205.46
2018-12-15T09:37:44.795Z,98196.73
2018-12-15T09:40:13.643Z,98200.08
2018-12-15T09:42:41.309Z,98202.41
2018-12-15T09:45:08.908Z,98200.02
2018-12-15T09:47:36.484Z,98205.91
2018-12-15T09:50:04.121Z,98199.72
2018-12-15T09:52:31.700Z,98194.41
2018-12-15T09:54:59.307Z,98194.17
2018-12-15T09:57:26.913Z,98192.52
2018-12-15T09:59:54.484Z,98193.27
2018-12-15T10:02:22.077Z,98188.58
2018-12-15T10:04:49.724Z,98191.27
2018-12-15T10:07:17.332Z,98183.59
2018-12-15T10:09:44.920Z,98181.69
2018-12-15T10:12:12.637Z,98180.28
2018-12-15T10:14:40.253Z,98180.75
2018-12-15T10:17:08.961Z,98177.83
2018-12-15T10:19:36.782Z,98178.20
2018-12-15T10:22:04.429Z,98173.25
2018-12-15T10:24:32.028Z,98161.59
2018-12-15T10:26:59.630Z,98164.37
2018-12-15T10:29:32.357Z,98167.81
2018-12-15T10:32:05.249Z,98161.30
2018-12-15T10:34:32.838Z,98157.59
2018-12-15T10:37:00.433Z,98157.12
2018-12-15T10:39:28.037Z,98154.73
2018-12-15T10:41:55.680Z,98156.37
2018-12-15T10:44:23.317Z,98151.00
2018-12-15T10:46:50.912Z,98151.03
2018-12-15T10:49:18.508Z,98151.53
2018-12-15T10:51:46.102Z,98146.66
2018-12-15T10:54:13.697Z,98141.42
2018-12-15T10:56:41.384Z,98137.83
2018-12-15T10:59:08.985Z,98130.47
2018-12-15T11:01:36.580Z,98135.30
2018-12-15T11:04:04.173Z,98133.85
2018-12-15T11:06:31.774Z,98133.99
2018-12-15T11:08:59.366Z,98130.86
2018-12-15T11:11:26.954Z,98135.23
2018-12-15T11:13:54.570Z,98136.94
2018-12-15T11:16:22.148Z,98140.16
2018-12-15T11:18:49.755Z,98031.95
2018-12-15T11:21:17.336Z,98134.19
2018-12-15T11:23:44.935Z,98132.06
2018-12-15T11:26:12.523Z,98132.54
2018-12-15T11:28:40.184Z,98134.09
2018-12-15T11:31:07.770Z,98129.31
2018-12-15T11:33:35.550Z,98132.74
2018-12-15T11:36:03.193Z,98133.58
2018-12-15T11:38:30.788Z,98134.63
2018-12-15T11:40:58.359Z,98130.66
2018-12-15T11:43:25.957Z,98130.42
2018-12-15T11:45:53.548Z,98132.44
2018-12-15T11:48:21.136Z,98133.11
2018-12-15T11:50:48.846Z,98123.19
2018-12-15T11:53:16.428Z,98123.57
2018-12-15T11:55:44.683Z,98121.48
2018-12-15T11:58:12.575Z,98123.09
2018-12-15T12:00:40.169Z,98119.06
2018-12-15T12:03:07.873Z,98117.15
2018-12-15T12:05:35.464Z,98115.33
2018-12-15T12:08:03.090Z,98117.58
2018-12-15T12:10:30.676Z,98114.59
2018-12-15T12:12:58.251Z,98114.02
2018-12-15T12:15:25.865Z,98112.20
2018-12-15T12:17:53.450Z,98112.73
2018-12-15T12:20:21.365Z,98108.61
2018-12-15T12:22:48.992Z,98110.48
2018-12-15T12:25:16.584Z,98106.25
2018-12-15T12:27:44.164Z,98115.19
2018-12-15T12:30:11.781Z,98101.48
2018-12-15T12:32:39.377Z,98102.28
2018-12-15T12:35:07.097Z,98105.52
2018-12-15T12:37:34.679Z,98097.27
2018-12-15T12:40:02.292Z,98095.48
2018-12-15T12:42:29.875Z,98089.64
2018-12-15T12:44:57.488Z,98092.58
2018-12-15T12:47:25.083Z,98088.61
2018-12-15T12:49:56.888Z,98095.86
2018-12-15T12:52:22.429Z,98088.54
2018-12-15T12:54:50.077Z,98093.08
2018-12-15T12:57:17.686Z,98088.64
2018-12-15T12:59:45.292Z,98087.36
2018-12-15T13:02:12.904Z,98088.94
2018-12-15T13:04:40.500Z,98091.39
2018-12-15T13:07:08.108Z,98104.83
2018-12-15T13:09:35.696Z,98096.47
2018-12-15T13:12:03.305Z,98084.61
2018-12-15T13:14:30.917Z,98090.28
2018-12-15T13:16:58.573Z,98094.74
2018-12-15T13:19:26.188Z,98096.32
2018-12-15T13:21:53.777Z,98089.51
2018-12-15T13:24:21.450Z,98094.14
2018-12-15T13:26:49.076Z,98092.73
2018-12-15T13:29:16.717Z,98087.95
2018-12-15T13:31:44.357Z,98093.94
2018-12-15T13:34:11.976Z,98092.29
2018-12-15T13:36:39.556Z,98094.98
2018-12-15T13:39:07.206Z,98097.16
2018-12-15T13:41:34.836Z,98090.20
2018-12-15T13:44:02.429Z,98092.09
2018-12-15T13:46:30.160Z,98093.40
2018-12-15T13:48:57.756Z,98093.40
2018-12-15T13:51:25.356Z,98093.88
2018-12-15T13:53:52.972Z,98097.67
2018-12-15T13:56:20.588Z,98094.74
2018-12-15T13:58:48.173Z,98097.73
2018-12-15T14:01:15.824Z,98095.58
2018-12-15T14:03:43.474Z,98102.53
2018-12-15T14:06:11.125Z,98098.87
2018-12-15T14:08:38.735Z,98101.46
2018-12-15T14:11:06.367Z,98098.33
2018-12-15T14:13:33.953Z,98102.96
2018-12-15T14:16:01.547Z,98097.52
2018-12-15T14:18:29.137Z,98097.97
2018-12-15T14:20:56.707Z,98100.72
2018-12-15T14:23:24.306Z,98113.11
2018-12-15T14:25:51.905Z,98098.39
2018-12-15T14:28:19.613Z,98103.70
2018-12-15T14:30:47.225Z,98097.82
2018-12-15T14:33:14.821Z,98102.72
2018-12-15T14:35:42.412Z,98102.81
2018-12-15T14:38:09.996Z,98098.28
2018-12-15T14:40:37.593Z,98102.81
2018-12-15T14:43:05.308Z,98099.02
2018-12-15T14:45:33.061Z,98102.13
2018-12-15T14:48:00.678Z,98099.92
2018-12-15T14:50:28.290Z,98096.93
2018-12-15T14:52:55.883Z,98102.37
2018-12-15T14:55:23.501Z,98093.95
2018-12-15T14:57:51.088Z,98091.53
2018-12-15T15:00:18.721Z,98087.52
2018-12-15T15:02:46.319Z,98087.13
2018-12-15T15:05:13.945Z,98088.87
2018-12-15T15:07:41.537Z,98096.45
2018-12-15T15:10:09.140Z,98091.62
2018-12-15T15:12:36.723Z,98088.99
2018-12-15T15:15:04.888Z,98093.80
2018-12-15T15:17:32.500Z,98099.44
2018-12-15T15:20:00.119Z,98095.11
2018-12-15T15:22:27.705Z,98100.28
2018-12-15T15:24:55.288Z,98092.88
2018-12-15T15:27:22.873Z,98092.61
2018-12-15T15:29:50.521Z,98093.63
2018-12-15T15:32:18.107Z,98087.37
2018-12-15T15:34:45.750Z,98086.91
2018-12-15T15:37:13.344Z,98080.06
2018-12-15T15:39:40.928Z,98086.55
2018-12-15T15:42:08.521Z,98084.22
2018-12-15T15:44:36.109Z,98083.77
2018-12-15T15:47:03.811Z,98083.27
2018-12-15T15:49:31.403Z,98084.31
2018-12-15T15:51:58.993Z,98082.13
2018-12-15T15:54:26.672Z,98077.38
2018-12-15T15:56:54.351Z,98088.77
2018-12-15T15:59:21.970Z,98082.13
2018-12-15T16:01:49.578Z,98080.81
2018-12-15T16:04:17.168Z,98079.64
2018-12-15T16:06:44.752Z,98081.91
2018-12-15T16:09:12.321Z,98075.64
2018-12-15T16:11:39.907Z,98074.45
2018-12-15T16:14:07.519Z,98075.34
2018-12-15T16:16:35.223Z,98067.67
2018-12-15T16:19:02.931Z,98069.73
2018-12-15T16:21:30.517Z,98084.36
2018-12-15T16:23:58.233Z,98079.08
2018-12-15T16:26:25.855Z,98077.08
2018-12-15T16:28:53.711Z,98075.89
2018-12-15T16:31:21.307Z,98073.41
2018-12-15T16:33:49.013Z,98069.44
2018-12-15T16:36:16.692Z,98075.35
2018-12-15T16:38:44.296Z,98066.25
2018-12-15T16:41:12.040Z,98066.01
2018-12-15T16:43:39.634Z,98062.34
2018-12-15T16:46:07.288Z,98059.95
2018-12-15T16:48:34.882Z,98056.67
2018-12-15T16:51:02.579Z,98058.25
2018-12-15T16:53:30.418Z,98060.34
2018-12-15T16:55:58.038Z,98058.34
2018-12-15T16:58:25.629Z,98052.94
2018-12-15T17:03:30.453Z,98051.68
2018-12-15T17:05:56.819Z,98050.42
2018-12-15T17:08:24.410Z,98043.11
2018-12-15T17:10:52.080Z,98039.17
2018-12-15T17:13:19.926Z,98033.92
2018-12-15T17:15:47.534Z,98035.73
2018-12-15T17:18:15.144Z,98035.95
2018-12-15T17:20:42.848Z,98032.30
2018-12-15T17:23:10.462Z,98029.08
2018-12-15T17:25:38.053Z,98032.43
2018-12-15T17:28:05.673Z,98036.82
2018-12-15T17:30:33.260Z,98028.94
2018-12-15T17:33:00.902Z,98029.59
2018-12-15T17:35:28.504Z,98022.28
2018-12-15T17:37:56.169Z,98026.08
2018-12-15T17:40:23.787Z,98022.19
2018-12-15T17:42:51.533Z,98019.51
2018-12-15T17:45:19.125Z,98018.77
2018-12-15T17:47:46.711Z,98010.94
2018-12-15T17:50:15.024Z,98018.16
2018-12-15T17:52:42.803Z,98012.16
2018-12-15T17:55:10.401Z,98014.84
2018-12-15T17:57:38.017Z,98010.81
2018-12-15T18:00:07.085Z,98012.73
2018-12-15T18:02:34.691Z,98012.23
2018-12-15T18:05:02.281Z,98014.01
2018-12-15T18:07:29.861Z,98006.84
2018-12-15T18:09:57.444Z,98003.70
2018-12-15T18:12:25.029Z,98000.27
2018-12-15T18:14:52.836Z,98000.56
2018-12-15T18:17:20.433Z,97991.91
2018-12-15T18:19:48.024Z,97992.45
2018-12-15T18:22:15.609Z,97990.03
2018-12-15T18:24:43.192Z,97992.21
2018-12-15T18:27:10.784Z,97981.77
2018-12-15T18:29:38.364Z,97992.98
2018-12-15T18:32:05.988Z,97993.08
2018-12-15T18:34:33.642Z,97987.88
2018-12-15T18:37:01.249Z,97978.24
2018-12-15T18:39:28.860Z,97975.63
2018-12-15T18:41:56.449Z,97969.98
2018-12-15T18:44:24.061Z,97956.31
2018-12-15T18:46:51.648Z,97953.84
2018-12-15T18:49:19.237Z,97954.67
2018-12-15T18:51:46.822Z,97952.08
2018-12-15T18:54:14.411Z,97962.05
2018-12-15T18:56:42.263Z,97957.78
2018-12-15T18:59:09.897Z,97954.19
2018-12-15T19:01:37.551Z,97954.25
2018-12-15T19:04:05.313Z,97954.61
2018-12-15T19:06:33.020Z,97961.33
2018-12-15T19:09:04.039Z,97956.43
2018-12-15T19:11:30.425Z,97955.95
2018-12-15T19:13:58.096Z,97958.64
2018-12-15T19:16:25.742Z,97952.30
2018-12-15T19:18:59.952Z,97954.75
2018-12-15T19:21:27.612Z,97948.41
2018-12-15T19:23:55.282Z,97944.34
2018-12-15T19:26:22.990Z,97942.53
2018-12-15T19:28:50.696Z,97932.59
2018-12-15T19:31:18.368Z,97931.72
2018-12-15T19:33:46.040Z,97933.57
2018-12-15T19:36:13.697Z,97937.17
2018-12-15T19:38:41.404Z,97929.10
2018-12-15T19:41:09.137Z,97924.03
2018-12-15T19:43:37.043Z,97916.72
2018-12-15T19:46:04.745Z,97915.67
2018-12-15T19:48:32.396Z,97910.54
2018-12-15T19:51:00.228Z,97898.39
2018-12-15T19:53:27.885Z,97892.08
2018-12-15T19:55:55.517Z,97896.58
2018-12-15T19:58:23.221Z,97893.89
2018-12-15T20:00:50.869Z,97882.61
2018-12-15T20:03:18.501Z,97877.31
2018-12-15T20:05:46.151Z,97875.39
2018-12-15T20:08:13.829Z,97872.41
2018-12-15T20:10:41.572Z,97874.22
2018-12-15T20:13:09.308Z,97864.89
2018-12-15T20:15:36.990Z,97862.53
2018-12-15T20:18:04.612Z,97856.66
2018-12-15T20:20:32.298Z,97859.45
2018-12-15T20:23:06.222Z,97852.94
2018-12-15T20:25:33.915Z,97845.13
2018-12-15T20:28:01.545Z,97839.21
2018-12-15T20:30:29.248Z,97834.95
2018-12-15T20:32:56.906Z,97834.88
2018-12-15T20:35:30.983Z,97506.20
2018-12-15T20:37:58.622Z,97832.50
2018-12-15T20:40:26.290Z,97824.81
2018-12-15T20:42:53.982Z,97815.65
2018-12-15T20:45:21.609Z,97817.42
2018-12-15T20:47:49.416Z,97811.25
2018-12-15T20:50:17.217Z,97807.73
2018-12-15T20:52:47.712Z,97799.54
2018-12-15T20:55:14.585Z,97793.94
2018-12-15T20:57:42.302Z,97793.37
2018-12-15T21:00:10.297Z,97792.66
2018-12-15T21:02:37.901Z,97783.79
2018-12-15T21:05:05.553Z,97779.59
2018-12-15T21:07:33.167Z,97772.00
2018-12-15T21:10:00.769Z,97762.69
2018-12-15T21:12:29.441Z,97764.77
2018-12-15T21:14:59.171Z,97767.98
2018-12-15T21:17:26.805Z,97757.55
2018-12-15T21:19:54.463Z,97752.91
2018-12-15T21:22:22.162Z,97747.72
2018-12-15T21:24:49.939Z,97752.55
2018-12-15T21:27:17.566Z,97742.62
2018-12-15T21:29:45.246Z,97746.88
2018-12-15T21:32:12.840Z,97741.36
2018-12-15T21:34:40.513Z,97743.58
2018-12-15T21:37:08.152Z,97740.90
2018-12-15T21:39:35.773Z,97602.81
2018-12-15T21:42:03.426Z,97542.75
2018-12-15T21:44:31.085Z,97730.46
2018-12-15T21:46:58.751Z,97722.91
2018-12-15T21:49:26.413Z,97725.77
2018-12-15T21:51:56.402Z,97723.63
2018-12-15T21:54:23.796Z,97730.72
2018-12-15T21:56:51.584Z,97729.73
2018-12-15T21:59:19.235Z,97728.39
2018-12-15T22:01:47.021Z,97728.92
2018-12-15T22:04:14.813Z,97726.50
2018-12-15T22:06:42.744Z,97728.88
2018-12-15T22:09:10.451Z,97728.45
2018-12-15T22:11:38.178Z,97719.44
2018-12-15T22:14:05.835Z,97717.48
2018-12-15T22:16:33.571Z,97711.38
2018-12-15T22:19:01.230Z,97713.27
2018-12-15T22:21:29.405Z,97712.30
2018-12-15T22:23:57.020Z,97705.70
2018-12-15T22:26:24.722Z,97703.37
2018-12-15T22:28:52.376Z,97704.48
2018-12-15T22:31:20.005Z,97692.20
2018-12-15T22:33:47.620Z,97696.53
2018-12-15T22:36:15.269Z,97682.34
2018-12-15T22:38:42.911Z,97679.89
2018-12-15T22:41:10.492Z,97677.81
2018-12-15T22:43:38.161Z,97671.53
2018-12-15T22:46:05.788Z,97648.28
2018-12-15T22:48:33.379Z,97666.40
2018-12-15T22:51:01.012Z,97660.30
2018-12-15T22:53:28.602Z,97653.23
2018-12-15T22:55:56.202Z,97651.89
2018-12-15T22:58:23.824Z,97650.90
2018-12-15T23:00:56.602Z,97639.51
2018-12-15T23:03:24.257Z,97638.66
2018-12-15T23:05:51.987Z,97633.53
2018-12-15T23:08:19.581Z,97634.80
2018-12-15T23:10:47.197Z,97634.19
2018-12-15T23:13:14.793Z,97628.04
2018-12-15T23:15:42.397Z,97627.05
2018-12-15T23:18:10.023Z,97628.34
2018-12-15T23:20:37.619Z,97621.22
2018-12-15T23:23:05.240Z,97620.41
2018-12-15T23:25:32.993Z,97618.84
2018-12-15T23:28:00.592Z,97617.80
2018-12-15T23:30:28.187Z,97612.55
2018-12-15T23:32:55.801Z,97607.98
2018-12-15T23:35:23.417Z,97607.23
2018-12-15T23:37:51.005Z,97605.77
2018-12-15T23:40:18.617Z,97601.13
2018-12-15T23:42:46.240Z,97597.06
2018-12-15T23:45:13.828Z,97593.57
2018-12-15T23:47:41.432Z,97589.66
2018-12-15T23:50:09.099Z,97588.47
2018-12-15T23:52:36.754Z,97582.30
2018-12-15T23:55:04.429Z,97581.45
2018-12-15T23:57:32.083Z,97577.13
2018-12-15T23:59:59.794Z,97572.30
